createdAt,value
2023-12-10T00:00:36.890Z,978.52
2023-12-10T00:01:36.870Z,978.55
2023-12-10T00:02:36.820Z,978.57
2023-12-10T00:03:36.837Z,978.59
2023-12-10T00:04:36.833Z,978.61
2023-12-10T00:05:36.738Z,978.58
2023-12-10T00:06:36.833Z,978.62
2023-12-10T00:07:36.716Z,978.64
2023-12-10T00:08:36.694Z,978.68
2023-12-10T00:09:36.727Z,978.76
2023-12-10T00:10:36.676Z,978.76
2023-12-10T00:11:36.670Z,978.79
2023-12-10T00:12:36.746Z,978.80
2023-12-10T00:13:36.662Z,978.81
2023-12-10T00:14:36.628Z,978.90
2023-12-10T00:15:36.652Z,978.94
2023-12-10T00:16:36.819Z,978.94
2023-12-10T00:17:36.654Z,978.90
2023-12-10T00:18:36.762Z,978.97
2023-12-10T00:19:36.651Z,978.99
2023-12-10T00:20:36.565Z,978.97
2023-12-10T00:21:36.633Z,978.96
2023-12-10T00:22:36.549Z,979.03
2023-12-10T00:23:36.533Z,978.98
2023-12-10T00:24:36.554Z,979.02
2023-12-10T00:25:36.514Z,979.01
2023-12-10T00:26:36.552Z,979.01
2023-12-10T00:27:36.525Z,979.04
2023-12-10T00:28:36.514Z,979.04
2023-12-10T00:29:36.463Z,979.05
2023-12-10T00:30:36.479Z,979.12
2023-12-10T00:31:36.437Z,979.15
2023-12-10T00:32:36.453Z,979.16
2023-12-10T00:33:36.548Z,979.21
2023-12-10T00:34:36.485Z,979.20
2023-12-10T00:35:36.412Z,979.23
2023-12-10T00:36:36.409Z,979.26
2023-12-10T00:37:36.371Z,979.25
2023-12-10T00:38:36.366Z,979.19
2023-12-10T00:39:36.411Z,979.32
2023-12-10T00:40:36.341Z,979.24
2023-12-10T00:41:36.329Z,979.31
2023-12-10T00:42:36.371Z,979.32
2023-12-10T00:43:36.315Z,979.37
2023-12-10T00:44:36.341Z,979.38
2023-12-10T00:45:36.392Z,979.41
2023-12-10T00:46:36.271Z,979.45
2023-12-10T00:47:36.351Z,979.53
2023-12-10T00:48:36.389Z,979.52
2023-12-10T00:49:36.343Z,979.56
2023-12-10T00:50:36.235Z,979.54
2023-12-10T00:51:36.278Z,979.53
2023-12-10T00:52:36.214Z,979.58
2023-12-10T00:53:36.213Z,979.58
2023-12-10T00:54:36.187Z,979.62
2023-12-10T00:55:36.171Z,979.62
2023-12-10T00:56:36.159Z,979.67
2023-12-10T00:57:36.216Z,979.67
2023-12-10T00:58:36.179Z,979.73
2023-12-10T00:59:36.129Z,979.79
2023-12-10T01:00:36.201Z,979.74
2023-12-10T01:01:36.141Z,979.75
2023-12-10T01:02:36.122Z,979.77
2023-12-10T01:03:36.168Z,979.79
2023-12-10T01:04:36.167Z,979.79
2023-12-10T01:05:36.084Z,979.86
2023-12-10T01:06:36.097Z,979.84
2023-12-10T01:07:36.060Z,979.83
2023-12-10T01:08:36.045Z,979.85
2023-12-10T01:09:36.070Z,979.84
2023-12-10T01:10:36.020Z,979.83
2023-12-10T01:11:35.998Z,979.91
2023-12-10T01:12:36.039Z,979.93
2023-12-10T01:13:35.978Z,979.91
2023-12-10T01:14:35.965Z,980.00
2023-12-10T01:15:35.966Z,979.96
2023-12-10T01:16:35.988Z,979.97
2023-12-10T01:17:35.978Z,979.98
2023-12-10T01:18:36.007Z,980.01
2023-12-10T01:19:35.966Z,980.00
2023-12-10T01:20:35.896Z,980.03
2023-12-10T01:21:35.927Z,980.15
2023-12-10T01:22:35.869Z,980.15
2023-12-10T01:23:35.860Z,980.15
2023-12-10T01:24:35.863Z,980.19
2023-12-10T01:25:35.847Z,980.25
2023-12-10T01:26:36.128Z,980.24
2023-12-10T01:27:35.910Z,980.29
2023-12-10T01:28:35.809Z,980.26
2023-12-10T01:29:35.800Z,980.36
2023-12-10T01:30:36.129Z,980.41
2023-12-10T01:31:35.830Z,980.43
2023-12-10T01:32:35.911Z,980.44
2023-12-10T01:33:36.025Z,980.53
2023-12-10T01:34:35.958Z,980.54
2023-12-10T01:35:35.979Z,980.57
2023-12-10T01:36:35.748Z,980.58
2023-12-10T01:37:35.741Z,980.63
2023-12-10T01:38:35.707Z,980.68
2023-12-10T01:39:35.733Z,980.69
2023-12-10T01:40:35.695Z,980.74
2023-12-10T01:41:35.666Z,980.74
2023-12-10T01:42:35.723Z,980.73
2023-12-10T01:43:35.639Z,980.76
2023-12-10T01:44:35.650Z,980.76
2023-12-10T01:45:35.657Z,980.84
2023-12-10T01:46:35.613Z,980.84
2023-12-10T01:47:35.628Z,980.87
2023-12-10T01:48:35.747Z,980.92
2023-12-10T01:49:35.647Z,980.97
2023-12-10T01:50:35.586Z,980.96
2023-12-10T01:51:35.622Z,980.99
2023-12-10T01:52:35.539Z,981.04
2023-12-10T01:53:35.527Z,981.08
2023-12-10T01:54:35.575Z,981.09
2023-12-10T01:55:35.507Z,981.10
2023-12-10T01:56:35.509Z,981.15
2023-12-10T01:57:35.577Z,981.14
2023-12-10T01:58:35.482Z,981.17
2023-12-10T01:59:35.473Z,981.18
2023-12-10T02:00:35.551Z,981.18
2023-12-10T02:01:35.469Z,981.18
2023-12-10T02:02:35.463Z,981.22
2023-12-10T02:03:35.557Z,981.15
2023-12-10T02:04:35.477Z,981.23
2023-12-10T02:05:35.528Z,981.28
2023-12-10T02:06:35.507Z,981.35
2023-12-10T02:07:35.366Z,981.31
2023-12-10T02:08:35.380Z,981.37
2023-12-10T02:09:35.393Z,981.41
2023-12-10T02:10:35.342Z,981.43
2023-12-10T02:11:35.333Z,981.46
2023-12-10T02:12:35.380Z,981.45
2023-12-10T02:13:35.325Z,981.48
2023-12-10T02:14:35.296Z,981.44
2023-12-10T02:15:35.316Z,981.47
2023-12-10T02:16:35.291Z,981.50
2023-12-10T02:17:35.342Z,981.53
2023-12-10T02:18:35.307Z,981.53
2023-12-10T02:19:35.323Z,981.51
2023-12-10T02:20:35.249Z,981.48
2023-12-10T02:21:35.227Z,981.54
2023-12-10T02:22:35.216Z,981.55
2023-12-10T02:23:35.188Z,981.57
2023-12-10T02:24:35.230Z,981.62
2023-12-10T02:25:35.172Z,981.63
2023-12-10T02:26:35.167Z,981.62
2023-12-10T02:27:35.179Z,981.65
2023-12-10T02:28:35.136Z,981.67
2023-12-10T02:29:35.122Z,981.68
2023-12-10T02:30:35.188Z,981.63
2023-12-10T02:31:35.121Z,981.64
2023-12-10T02:32:35.127Z,981.61
2023-12-10T02:33:35.314Z,981.63
2023-12-10T02:34:35.156Z,981.68
2023-12-10T02:35:35.060Z,981.62
2023-12-10T02:36:35.150Z,981.65
2023-12-10T02:37:35.049Z,981.70
2023-12-10T02:38:35.024Z,981.74
2023-12-10T02:39:35.066Z,981.68
2023-12-10T02:40:35.037Z,981.73
2023-12-10T02:41:35.007Z,981.75
2023-12-10T02:42:35.004Z,981.74
2023-12-10T02:43:34.982Z,981.72
2023-12-10T02:44:34.966Z,981.75
2023-12-10T02:45:34.988Z,981.74
2023-12-10T02:46:34.941Z,981.76
2023-12-10T02:47:34.945Z,981.80
2023-12-10T02:48:35.037Z,981.81
2023-12-10T02:49:34.990Z,981.78
2023-12-10T02:50:34.926Z,981.81
2023-12-10T02:51:34.944Z,981.83
2023-12-10T02:52:34.890Z,981.81
2023-12-10T02:53:34.863Z,981.83
2023-12-10T02:54:34.888Z,981.83
2023-12-10T02:55:34.842Z,981.85
2023-12-10T02:56:34.848Z,981.83
2023-12-10T02:57:34.988Z,981.84
2023-12-10T02:58:34.802Z,981.84
2023-12-10T02:59:34.821Z,981.88
2023-12-10T03:00:34.827Z,981.91
2023-12-10T03:01:34.801Z,981.92
2023-12-10T03:02:34.850Z,981.90
2023-12-10T03:03:34.806Z,981.84
2023-12-10T03:04:34.813Z,981.91
2023-12-10T03:05:34.732Z,981.91
2023-12-10T03:06:34.717Z,981.90
2023-12-10T03:07:43.700Z,981.96
2023-12-10T03:08:34.703Z,982.00
2023-12-10T03:09:34.756Z,982.02
2023-12-10T03:10:34.673Z,981.97
2023-12-10T03:11:34.665Z,981.95
2023-12-10T03:12:34.770Z,982.00
2023-12-10T03:13:34.674Z,981.99
2023-12-10T03:14:34.641Z,982.00
2023-12-10T03:15:34.649Z,981.98
2023-12-10T03:16:34.620Z,981.98
2023-12-10T03:17:34.987Z,981.92
2023-12-10T03:18:34.752Z,981.96
2023-12-10T03:19:34.624Z,981.92
2023-12-10T03:20:34.587Z,981.95
2023-12-10T03:21:34.576Z,981.99
2023-12-10T03:22:34.556Z,981.96
2023-12-10T03:23:34.553Z,982.01
2023-12-10T03:24:34.571Z,982.05
2023-12-10T03:25:34.517Z,982.08
2023-12-10T03:26:34.500Z,982.06
2023-12-10T03:27:34.534Z,982.13
2023-12-10T03:28:34.531Z,982.16
2023-12-10T03:29:34.472Z,982.16
2023-12-10T03:30:34.480Z,982.20
2023-12-10T03:31:34.459Z,982.16
2023-12-10T03:32:34.471Z,982.20
2023-12-10T03:33:34.496Z,982.19
2023-12-10T03:34:34.537Z,982.17
2023-12-10T03:35:34.394Z,982.14
2023-12-10T03:36:34.451Z,982.15
2023-12-10T03:37:34.371Z,982.20
2023-12-10T03:38:34.365Z,982.18
2023-12-10T03:39:34.403Z,982.17
2023-12-10T03:40:34.359Z,982.18
2023-12-10T03:41:34.345Z,982.19
2023-12-10T03:42:34.448Z,982.26
2023-12-10T03:43:34.311Z,982.26
2023-12-10T03:44:34.299Z,982.30
2023-12-10T03:45:34.315Z,982.25
2023-12-10T03:46:34.294Z,982.24
2023-12-10T03:47:34.299Z,982.21
2023-12-10T03:48:34.320Z,982.22
2023-12-10T03:49:34.314Z,982.24
2023-12-10T03:50:34.238Z,982.23
2023-12-10T03:51:34.267Z,982.22
2023-12-10T03:52:34.272Z,982.22
2023-12-10T03:53:34.195Z,982.23
2023-12-10T03:54:34.225Z,982.26
2023-12-10T03:55:34.208Z,982.25
2023-12-10T03:56:34.163Z,982.28
2023-12-10T03:57:34.236Z,982.29
2023-12-10T03:58:34.145Z,982.30
2023-12-10T03:59:34.141Z,982.31
2023-12-10T04:00:34.378Z,982.27
2023-12-10T04:01:34.177Z,982.25
2023-12-10T04:02:34.123Z,982.22
2023-12-10T04:03:34.127Z,982.27
2023-12-10T04:04:34.094Z,982.22
2023-12-10T04:05:34.110Z,982.21
2023-12-10T04:06:34.094Z,982.17
2023-12-10T04:07:34.048Z,982.19
2023-12-10T04:08:34.047Z,982.27
2023-12-10T04:09:34.077Z,982.28
2023-12-10T04:10:34.016Z,982.29
2023-12-10T04:11:34.017Z,982.35
2023-12-10T04:12:34.046Z,982.35
2023-12-10T04:13:33.991Z,982.25
2023-12-10T04:14:33.964Z,982.42
2023-12-10T04:15:33.989Z,982.44
2023-12-10T04:16:33.938Z,982.33
2023-12-10T04:17:34.042Z,982.29
2023-12-10T04:18:34.257Z,982.28
2023-12-10T04:19:34.061Z,982.39
2023-12-10T04:20:33.910Z,982.42
2023-12-10T04:21:33.951Z,982.39
2023-12-10T04:22:33.884Z,982.46
2023-12-10T04:23:33.875Z,982.43
2023-12-10T04:24:33.992Z,982.36
2023-12-10T04:25:33.850Z,982.36
2023-12-10T04:26:33.829Z,982.34
2023-12-10T04:27:33.920Z,982.41
2023-12-10T04:28:33.819Z,982.42
2023-12-10T04:29:33.789Z,982.44
2023-12-10T04:30:33.827Z,982.43
2023-12-10T04:31:33.776Z,982.40
2023-12-10T04:32:33.917Z,982.45
2023-12-10T04:33:33.821Z,982.49
2023-12-10T04:34:33.804Z,982.47
2023-12-10T04:35:33.730Z,982.49
2023-12-10T04:36:33.764Z,982.53
2023-12-10T04:37:33.717Z,982.51
2023-12-10T04:38:33.698Z,982.55
2023-12-10T04:39:33.774Z,982.48
2023-12-10T04:40:33.680Z,982.53
2023-12-10T04:41:33.692Z,982.55
2023-12-10T04:42:33.755Z,982.50
2023-12-10T04:43:33.680Z,982.53
2023-12-10T04:44:33.629Z,982.49
2023-12-10T04:45:33.646Z,982.51
2023-12-10T04:46:33.620Z,982.57
2023-12-10T04:47:33.646Z,982.57
2023-12-10T04:48:33.830Z,982.58
2023-12-10T04:49:33.709Z,982.58
2023-12-10T04:50:33.581Z,982.65
2023-12-10T04:51:33.607Z,982.66
2023-12-10T04:52:33.542Z,982.59
2023-12-10T04:53:33.537Z,982.65
2023-12-10T04:54:33.554Z,982.62
2023-12-10T04:55:33.519Z,982.63
2023-12-10T04:56:33.494Z,982.70
2023-12-10T04:57:33.556Z,982.71
2023-12-10T04:58:33.484Z,982.75
2023-12-10T04:59:33.482Z,982.79
2023-12-10T05:00:33.604Z,982.79
2023-12-10T05:01:33.457Z,982.78
2023-12-10T05:02:33.427Z,982.84
2023-12-10T05:03:33.504Z,982.81
2023-12-10T05:04:33.431Z,982.80
2023-12-10T05:05:33.483Z,982.83
2023-12-10T05:06:33.419Z,982.83
2023-12-10T05:07:33.366Z,982.87
2023-12-10T05:08:33.368Z,982.83
2023-12-10T05:09:33.425Z,982.88
2023-12-10T05:10:33.358Z,982.90
2023-12-10T05:11:33.326Z,982.96
2023-12-10T05:12:33.581Z,983.01
2023-12-10T05:13:33.305Z,982.99
2023-12-10T05:14:33.304Z,982.95
2023-12-10T05:15:33.357Z,982.92
2023-12-10T05:16:33.286Z,982.89
2023-12-10T05:17:33.326Z,982.94
2023-12-10T05:18:33.442Z,982.82
2023-12-10T05:19:33.337Z,982.85
2023-12-10T05:20:33.234Z,982.89
2023-12-10T05:21:33.256Z,982.83
2023-12-10T05:22:33.428Z,982.81
2023-12-10T05:23:33.207Z,982.83
2023-12-10T05:24:33.223Z,982.86
2023-12-10T05:25:33.176Z,982.87
2023-12-10T05:26:33.163Z,982.85
2023-12-10T05:27:33.158Z,982.90
2023-12-10T05:28:33.158Z,982.84
2023-12-10T05:29:33.129Z,982.86
2023-12-10T05:30:35.707Z,982.87
2023-12-10T05:31:33.124Z,982.86
2023-12-10T05:32:33.353Z,982.90
2023-12-10T05:33:33.305Z,982.93
2023-12-10T05:34:33.230Z,982.95
2023-12-10T05:35:33.064Z,982.92
2023-12-10T05:36:33.072Z,982.89
2023-12-10T05:37:33.547Z,982.94
2023-12-10T05:38:33.037Z,982.89
2023-12-10T05:39:33.070Z,982.86
2023-12-10T05:40:33.020Z,982.82
2023-12-10T05:41:32.995Z,982.82
2023-12-10T05:42:33.307Z,982.83
2023-12-10T05:43:32.970Z,982.80
2023-12-10T05:44:32.954Z,982.82
2023-12-10T05:45:32.998Z,982.86
2023-12-10T05:46:32.935Z,982.85
2023-12-10T05:47:33.076Z,982.89
2023-12-10T05:48:33.124Z,982.91
2023-12-10T05:49:32.965Z,982.94
2023-12-10T05:50:32.903Z,982.91
2023-12-10T05:51:32.906Z,982.93
2023-12-10T05:52:32.877Z,982.94
2023-12-10T05:53:32.868Z,982.90
2023-12-10T05:54:32.890Z,982.97
2023-12-10T05:55:32.842Z,983.02
2023-12-10T05:56:32.852Z,982.97
2023-12-10T05:57:32.877Z,982.97
2023-12-10T05:58:32.800Z,983.02
2023-12-10T05:59:32.802Z,983.02
2023-12-10T06:00:32.820Z,983.07
2023-12-10T06:01:32.818Z,983.05
2023-12-10T06:02:32.759Z,983.11
2023-12-10T06:03:32.900Z,983.15
2023-12-10T06:04:32.858Z,983.07
2023-12-10T06:05:32.774Z,983.05
2023-12-10T06:06:32.764Z,983.15
2023-12-10T06:07:32.702Z,983.19
2023-12-10T06:08:32.753Z,983.17
2023-12-10T06:09:32.754Z,983.18
2023-12-10T06:10:32.742Z,983.15
2023-12-10T06:11:32.663Z,983.12
2023-12-10T06:12:33.213Z,983.13
2023-12-10T06:13:32.645Z,983.22
2023-12-10T06:14:32.901Z,983.20
2023-12-10T06:15:32.666Z,983.16
2023-12-10T06:16:32.601Z,983.17
2023-12-10T06:17:32.621Z,983.19
2023-12-10T06:18:32.704Z,983.20
2023-12-10T06:19:32.798Z,983.24
2023-12-10T06:20:32.576Z,983.30
2023-12-10T06:21:32.565Z,983.28
2023-12-10T06:22:32.656Z,983.27
2023-12-10T06:23:32.534Z,983.23
2023-12-10T06:24:32.569Z,983.30
2023-12-10T06:25:32.507Z,983.27
2023-12-10T06:26:32.492Z,983.28
2023-12-10T06:27:32.533Z,983.35
2023-12-10T06:28:32.478Z,983.38
2023-12-10T06:29:32.472Z,983.35
2023-12-10T06:30:32.474Z,983.36
2023-12-10T06:31:32.441Z,983.43
2023-12-10T06:32:32.861Z,983.39
2023-12-10T06:33:32.585Z,983.38
2023-12-10T06:34:32.512Z,983.44
2023-12-10T06:35:32.439Z,983.45
2023-12-10T06:36:32.465Z,983.43
2023-12-10T06:37:32.373Z,983.46
2023-12-10T06:38:32.372Z,983.51
2023-12-10T06:39:32.374Z,983.44
2023-12-10T06:40:32.337Z,983.48
2023-12-10T06:41:32.350Z,983.51
2023-12-10T06:42:32.734Z,983.50
2023-12-10T06:43:32.318Z,983.53
2023-12-10T06:44:32.307Z,983.56
2023-12-10T06:45:32.333Z,983.58
2023-12-10T06:46:32.267Z,983.64
2023-12-10T06:47:32.302Z,983.65
2023-12-10T06:48:32.383Z,983.64
2023-12-10T06:49:32.424Z,983.70
2023-12-10T06:50:32.275Z,983.70
2023-12-10T06:51:32.358Z,983.78
2023-12-10T06:52:32.237Z,983.72
2023-12-10T06:53:32.193Z,983.79
2023-12-10T06:54:32.186Z,983.78
2023-12-10T06:55:32.170Z,983.77
2023-12-10T06:56:32.154Z,983.82
2023-12-10T06:57:32.240Z,983.81
2023-12-10T06:58:32.171Z,983.82
2023-12-10T06:59:32.123Z,983.83
2023-12-10T07:00:32.240Z,983.87
2023-12-10T07:01:32.632Z,983.85
2023-12-10T07:02:32.263Z,983.87
2023-12-10T07:03:32.166Z,983.86
2023-12-10T07:04:32.065Z,983.82
2023-12-10T07:05:32.235Z,983.82
2023-12-10T07:06:32.094Z,983.81
2023-12-10T07:07:32.058Z,983.87
2023-12-10T07:08:32.023Z,983.88
2023-12-10T07:09:32.082Z,983.87
2023-12-10T07:10:31.998Z,983.86
2023-12-10T07:11:32.011Z,983.89
2023-12-10T07:12:32.415Z,983.89
2023-12-10T07:13:31.967Z,983.88
2023-12-10T07:14:31.969Z,983.92
2023-12-10T07:15:31.972Z,983.88
2023-12-10T07:16:32.005Z,983.94
2023-12-10T07:17:32.058Z,983.97
2023-12-10T07:18:32.004Z,984.01
2023-12-10T07:19:32.069Z,983.99
2023-12-10T07:20:31.921Z,984.02
2023-12-10T07:21:31.990Z,984.08
2023-12-10T07:22:32.210Z,984.01
2023-12-10T07:23:31.875Z,984.05
2023-12-10T07:24:31.903Z,984.07
2023-12-10T07:25:31.856Z,984.11
2023-12-10T07:26:31.819Z,984.10
2023-12-10T07:27:31.861Z,984.11
2023-12-10T07:28:31.800Z,984.16
2023-12-10T07:29:31.802Z,984.18
2023-12-10T07:30:31.854Z,984.13
2023-12-10T07:31:31.770Z,984.15
2023-12-10T07:32:32.214Z,984.17
2023-12-10T07:33:31.886Z,984.27
2023-12-10T07:34:31.940Z,984.28
2023-12-10T07:35:31.717Z,984.33
2023-12-10T07:36:31.754Z,984.27
2023-12-10T07:37:31.713Z,984.30
2023-12-10T07:38:31.692Z,984.33
2023-12-10T07:39:31.749Z,984.34
2023-12-10T07:40:31.678Z,984.34
2023-12-10T07:41:31.666Z,984.36
2023-12-10T07:42:32.040Z,984.34
2023-12-10T07:43:31.647Z,984.31
2023-12-10T07:44:31.650Z,984.37
2023-12-10T07:45:31.637Z,984.39
2023-12-10T07:46:31.596Z,984.43
2023-12-10T07:47:31.642Z,984.42
2023-12-10T07:48:31.720Z,984.52
2023-12-10T07:49:31.659Z,984.52
2023-12-10T07:50:31.579Z,984.43
2023-12-10T07:51:31.568Z,984.51
2023-12-10T07:52:31.963Z,984.50
2023-12-10T07:53:31.538Z,984.54
2023-12-10T07:54:31.546Z,984.48
2023-12-10T07:55:31.535Z,984.50
2023-12-10T07:56:31.487Z,984.54
2023-12-10T07:57:31.510Z,984.53
2023-12-10T07:58:31.500Z,984.60
2023-12-10T07:59:31.468Z,984.54
2023-12-10T08:00:31.582Z,984.58
2023-12-10T08:01:31.571Z,984.53
2023-12-10T08:02:31.817Z,984.62
2023-12-10T08:03:31.486Z,984.60
2023-12-10T08:04:31.442Z,984.56
2023-12-10T08:05:31.411Z,984.51
2023-12-10T08:06:31.426Z,984.58
2023-12-10T08:07:31.393Z,984.54
2023-12-10T08:08:31.357Z,984.56
2023-12-10T08:09:31.448Z,984.58
2023-12-10T08:10:31.342Z,984.59
2023-12-10T08:11:31.354Z,984.59
2023-12-10T08:12:33.442Z,984.57
2023-12-10T08:13:31.312Z,984.61
2023-12-10T08:14:31.963Z,984.62
2023-12-10T08:15:31.328Z,984.60
2023-12-10T08:16:31.286Z,984.60
2023-12-10T08:17:31.302Z,984.62
2023-12-10T08:18:31.314Z,984.67
2023-12-10T08:19:31.380Z,984.70
2023-12-10T08:20:31.231Z,984.68
2023-12-10T08:21:31.236Z,984.65
2023-12-10T08:22:31.728Z,984.66
2023-12-10T08:23:31.189Z,984.70
2023-12-10T08:24:31.211Z,984.71
2023-12-10T08:25:32.457Z,984.68
2023-12-10T08:26:31.175Z,984.70
2023-12-10T08:27:31.252Z,984.56
2023-12-10T08:28:31.184Z,984.65
2023-12-10T08:29:31.126Z,984.74
2023-12-10T08:30:31.152Z,984.75
2023-12-10T08:31:31.115Z,984.72
2023-12-10T08:32:33.359Z,984.74
2023-12-10T08:33:31.324Z,984.71
2023-12-10T08:34:31.128Z,984.76
2023-12-10T08:35:31.071Z,984.77
2023-12-10T08:36:31.087Z,984.77
2023-12-10T08:37:31.053Z,984.81
2023-12-10T08:38:31.035Z,984.76
2023-12-10T08:39:31.041Z,984.88
2023-12-10T08:40:31.016Z,984.82
2023-12-10T08:41:30.994Z,984.83
2023-12-10T08:42:31.277Z,984.82
2023-12-10T08:43:31.024Z,984.81
2023-12-10T08:44:30.993Z,984.86
2023-12-10T08:45:31.251Z,984.82
2023-12-10T08:46:30.934Z,984.84
2023-12-10T08:47:30.948Z,984.81
2023-12-10T08:48:31.054Z,984.79
2023-12-10T08:49:31.053Z,984.77
2023-12-10T08:50:30.901Z,984.81
2023-12-10T08:51:30.950Z,984.81
2023-12-10T08:52:31.408Z,984.76
2023-12-10T08:53:30.857Z,984.84
2023-12-10T08:54:30.902Z,984.91
2023-12-10T08:55:30.867Z,984.86
2023-12-10T08:56:30.827Z,984.91
2023-12-10T08:57:30.841Z,984.98
2023-12-10T08:58:30.826Z,985.01
2023-12-10T08:59:30.829Z,985.00
2023-12-10T09:00:30.867Z,984.99
2023-12-10T09:01:30.845Z,985.02
2023-12-10T09:02:31.112Z,985.02
2023-12-10T09:03:30.850Z,985.05
2023-12-10T09:04:30.807Z,985.07
2023-12-10T09:05:30.812Z,985.01
2023-12-10T09:06:30.794Z,985.06
2023-12-10T09:07:30.732Z,984.99
2023-12-10T09:08:30.711Z,985.11
2023-12-10T09:09:30.695Z,985.15
2023-12-10T09:10:30.781Z,985.15
2023-12-10T09:11:30.721Z,985.17
2023-12-10T09:12:31.206Z,985.21
2023-12-10T09:13:30.655Z,985.16
2023-12-10T09:14:30.625Z,985.17
2023-12-10T09:15:30.693Z,985.14
2023-12-10T09:16:30.607Z,985.15
2023-12-10T09:17:30.722Z,985.12
2023-12-10T09:18:30.753Z,985.18
2023-12-10T09:19:30.745Z,985.08
2023-12-10T09:20:30.591Z,985.20
2023-12-10T09:21:30.650Z,985.23
2023-12-10T09:22:30.869Z,985.23
2023-12-10T09:23:30.596Z,985.30
2023-12-10T09:24:30.655Z,985.27
2023-12-10T09:25:30.638Z,985.33
2023-12-10T09:26:30.558Z,985.30
2023-12-10T09:27:30.558Z,985.28
2023-12-10T09:28:30.469Z,985.34
2023-12-10T09:29:30.469Z,985.33
2023-12-10T09:30:30.543Z,985.38
2023-12-10T09:31:30.517Z,985.32
2023-12-10T09:32:30.782Z,985.35
2023-12-10T09:33:30.570Z,985.35
2023-12-10T09:34:30.499Z,985.43
2023-12-10T09:35:30.429Z,985.25
2023-12-10T09:36:30.470Z,985.48
2023-12-10T09:37:30.363Z,985.41
2023-12-10T09:38:30.359Z,985.46
2023-12-10T09:39:30.386Z,985.53
2023-12-10T09:40:30.348Z,985.57
2023-12-10T09:41:30.341Z,985.50
2023-12-10T09:42:30.626Z,985.58
2023-12-10T09:43:30.306Z,985.49
2023-12-10T09:44:30.301Z,985.50
2023-12-10T09:45:30.323Z,985.55
2023-12-10T09:46:30.265Z,985.54
2023-12-10T09:47:30.383Z,985.57
2023-12-10T09:48:30.342Z,985.65
2023-12-10T09:49:30.438Z,985.62
2023-12-10T09:50:30.244Z,985.68
2023-12-10T09:51:30.265Z,985.64
2023-12-10T09:52:30.457Z,985.68
2023-12-10T09:53:30.212Z,985.72
2023-12-10T09:54:30.988Z,985.74
2023-12-10T09:55:30.179Z,985.83
2023-12-10T09:56:30.169Z,985.82
2023-12-10T09:57:30.169Z,985.87
2023-12-10T09:58:30.139Z,985.79
2023-12-10T09:59:30.148Z,985.85
2023-12-10T10:00:30.124Z,985.76
2023-12-10T10:01:30.247Z,985.83
2023-12-10T10:02:30.380Z,985.81
2023-12-10T10:03:30.258Z,985.82
2023-12-10T10:04:30.282Z,985.83
2023-12-10T10:05:30.234Z,985.81
2023-12-10T10:06:30.079Z,985.89
2023-12-10T10:07:30.037Z,985.89
2023-12-10T10:08:30.048Z,985.87
2023-12-10T10:09:35.494Z,985.86
2023-12-10T10:10:31.053Z,985.85
2023-12-10T10:11:29.986Z,985.84
2023-12-10T10:12:30.339Z,985.87
2023-12-10T10:13:29.985Z,985.88
2023-12-10T10:14:29.976Z,985.85
2023-12-10T10:15:30.089Z,985.90
2023-12-10T10:16:29.933Z,985.89
2023-12-10T10:17:30.484Z,985.94
2023-12-10T10:18:30.009Z,985.95
2023-12-10T10:19:30.068Z,985.95
2023-12-10T10:20:29.885Z,985.91
2023-12-10T10:21:29.933Z,985.94
2023-12-10T10:22:29.917Z,986.00
2023-12-10T10:23:29.860Z,985.98
2023-12-10T10:24:29.872Z,985.98
2023-12-10T10:25:29.829Z,985.97
2023-12-10T10:26:29.826Z,986.03
2023-12-10T10:27:30.121Z,986.05
2023-12-10T10:28:29.802Z,985.98
2023-12-10T10:29:29.793Z,986.00
2023-12-10T10:30:32.370Z,986.03
2023-12-10T10:31:29.758Z,986.04
2023-12-10T10:32:29.792Z,986.03
2023-12-10T10:33:29.833Z,986.02
2023-12-10T10:34:29.825Z,986.04
2023-12-10T10:35:29.761Z,985.97
2023-12-10T10:36:29.830Z,986.02
2023-12-10T10:37:29.992Z,986.02
2023-12-10T10:38:29.687Z,986.08
2023-12-10T10:39:29.718Z,986.02
2023-12-10T10:40:29.668Z,986.04
2023-12-10T10:41:29.693Z,986.13
2023-12-10T10:42:29.685Z,986.13
2023-12-10T10:43:29.639Z,986.11
2023-12-10T10:44:29.625Z,986.04
2023-12-10T10:45:29.676Z,986.05
2023-12-10T10:46:29.653Z,986.09
2023-12-10T10:47:30.037Z,986.14
2023-12-10T10:48:29.718Z,986.11
2023-12-10T10:49:29.672Z,986.18
2023-12-10T10:50:29.595Z,986.20
2023-12-10T10:51:29.640Z,986.17
2023-12-10T10:52:29.538Z,986.22
2023-12-10T10:53:29.534Z,986.19
2023-12-10T10:54:29.535Z,986.20
2023-12-10T10:55:29.514Z,986.22
2023-12-10T10:56:29.499Z,986.19
2023-12-10T10:57:29.745Z,986.24
2023-12-10T10:58:29.636Z,986.25
2023-12-10T10:59:29.485Z,986.27
2023-12-10T11:00:29.625Z,986.25
2023-12-10T11:01:29.486Z,986.21
2023-12-10T11:02:29.446Z,986.33
2023-12-10T11:03:29.594Z,986.34
2023-12-10T11:04:29.541Z,986.27
2023-12-10T11:05:29.492Z,986.29
2023-12-10T11:06:29.635Z,986.43
2023-12-10T11:07:29.701Z,986.27
2023-12-10T11:08:29.396Z,986.40
2023-12-10T11:09:29.379Z,986.40
2023-12-10T11:10:29.400Z,986.51
2023-12-10T11:11:31.541Z,986.40
2023-12-10T11:12:29.388Z,986.41
2023-12-10T11:13:29.324Z,986.33
2023-12-10T11:14:29.318Z,986.46
2023-12-10T11:15:29.354Z,986.44
2023-12-10T11:16:29.273Z,986.39
2023-12-10T11:17:29.678Z,986.52
2023-12-10T11:18:29.309Z,986.50
2023-12-10T11:19:29.343Z,986.52
2023-12-10T11:20:29.242Z,986.46
2023-12-10T11:21:29.262Z,986.48
2023-12-10T11:22:29.201Z,986.46
2023-12-10T11:23:31.084Z,986.55
2023-12-10T11:24:29.220Z,986.50
2023-12-10T11:25:29.166Z,986.60
2023-12-10T11:26:29.153Z,986.48
2023-12-10T11:27:29.359Z,986.54
2023-12-10T11:28:29.140Z,986.62
2023-12-10T11:29:29.128Z,986.55
2023-12-10T11:30:29.258Z,986.59
2023-12-10T11:31:29.124Z,986.53
2023-12-10T11:32:29.415Z,986.57
2023-12-10T11:33:29.256Z,986.66
2023-12-10T11:34:29.174Z,986.69
2023-12-10T11:35:29.058Z,986.61
2023-12-10T11:36:36.547Z,986.61
2023-12-10T11:37:30.327Z,986.67
2023-12-10T11:38:29.031Z,986.72
2023-12-10T11:39:29.055Z,986.72
2023-12-10T11:40:29.019Z,986.80
2023-12-10T11:41:29.010Z,986.78
2023-12-10T11:42:29.254Z,986.82
2023-12-10T11:43:28.978Z,986.86
2023-12-10T11:44:28.961Z,986.83
2023-12-10T11:45:28.999Z,986.88
2023-12-10T11:46:35.162Z,986.91
2023-12-10T11:47:30.285Z,986.86
2023-12-10T11:48:29.009Z,986.90
2023-12-10T11:49:28.941Z,986.86
2023-12-10T11:50:28.895Z,986.91
2023-12-10T11:51:28.936Z,986.84
2023-12-10T11:52:28.893Z,986.83
2023-12-10T11:53:28.852Z,986.85
2023-12-10T11:54:28.880Z,986.84
2023-12-10T11:55:28.865Z,986.82
2023-12-10T11:56:28.834Z,986.86
2023-12-10T11:57:29.039Z,986.78
2023-12-10T11:58:28.814Z,986.79
2023-12-10T11:59:28.780Z,986.83
2023-12-10T12:00:28.839Z,986.83
2023-12-10T12:01:28.863Z,986.77
2023-12-10T12:02:28.755Z,986.81
2023-12-10T12:03:28.799Z,986.85
2023-12-10T12:04:28.868Z,986.76
2023-12-10T12:05:28.777Z,986.81
2023-12-10T12:06:28.770Z,986.90
2023-12-10T12:07:29.429Z,986.97
2023-12-10T12:08:28.689Z,986.92
2023-12-10T12:09:28.699Z,986.97
2023-12-10T12:10:28.679Z,986.98
2023-12-10T12:11:28.680Z,986.94
2023-12-10T12:12:28.672Z,986.97
2023-12-10T12:13:28.691Z,987.03
2023-12-10T12:14:28.619Z,987.02
2023-12-10T12:15:28.638Z,987.03
2023-12-10T12:16:28.601Z,987.09
2023-12-10T12:17:28.965Z,987.05
2023-12-10T12:18:28.985Z,987.12
2023-12-10T12:19:28.754Z,987.09
2023-12-10T12:20:28.566Z,987.06
2023-12-10T12:21:28.593Z,987.11
2023-12-10T12:22:28.537Z,987.07
2023-12-10T12:23:28.522Z,987.11
2023-12-10T12:24:28.862Z,987.06
2023-12-10T12:25:28.512Z,987.06
2023-12-10T12:26:28.502Z,986.98
2023-12-10T12:27:28.852Z,987.02
2023-12-10T12:28:28.476Z,987.11